Time;durP1;ratioP1;P1;durP2;ratioP2;P2;SDS_P1;SDS_P2;PMS_P1;PMS_P2;Temp;Humidity;BMP_temperature;BMP_pressure;BME280_temperature;BME280_humidity;BME280_pressure;Samples;Min_cycle;Max_cycle;Signal;HPM_P1;HPM_P2
2022/09/28 00:01:35;;;;;;;7.00;6.30;;;;;;;10.25;73.04;99519.28;5076262;28;20434;-57
2022/09/28 00:04:01;;;;;;;7.68;6.30;;;;;;;10.18;72.88;99527.88;5092075;28;20044;-57
2022/09/28 00:06:29;;;;;;;7.25;6.57;;;;;;;10.22;73.07;99530.94;5086500;28;20033;-57
2022/09/28 00:08:54;;;;;;;8.23;6.30;;;;;;;10.24;73.25;99537.00;5083856;28;20032;-57
2022/09/28 00:11:21;;;;;;;7.95;6.32;;;;;;;10.17;73.17;99528.16;5079264;28;20028;-57
2022/09/28 00:13:51;;;;;;;9.88;6.68;;;;;;;10.22;73.46;99523.44;5088618;28;20040;-57
2022/09/28 00:16:19;;;;;;;7.43;6.55;;;;;;;10.20;73.42;99527.59;5079083;28;20078;-57
2022/09/28 00:18:45;;;;;;;8.85;6.90;;;;;;;10.18;73.38;99525.13;5081546;28;20029;-57
2022/09/28 00:21:32;;;;;;;8.05;6.68;;;;;;;10.24;73.53;99523.13;5079269;28;20050;-57
2022/09/28 00:24:12;;;;;;;8.95;7.18;;;;;;;10.15;73.32;99522.91;5073403;28;20025;-57
2022/09/28 00:26:48;;;;;;;8.77;7.35;;;;;;;10.16;73.59;99515.41;5054546;28;20032;-57
2022/09/28 00:29:39;;;;;;;7.80;6.93;;;;;;;10.18;73.86;99521.47;5052581;28;20025;-57
2022/09/28 00:32:09;;;;;;;9.35;6.97;;;;;;;10.16;73.54;99518.19;5053446;28;20040;-57
2022/09/28 00:34:37;;;;;;;8.05;7.25;;;;;;;10.20;73.57;99510.94;5084167;28;20466;-57
2022/09/28 00:37:04;;;;;;;8.15;7.07;;;;;;;10.19;73.59;99504.59;5092795;28;20055;-57
2022/09/28 00:39:30;;;;;;;8.15;7.13;;;;;;;10.15;73.51;99505.44;5093272;28;20020;-57
2022/09/28 00:41:56;;;;;;;8.45;6.90;;;;;;;10.17;73.69;99500.44;5082524;28;20558;-57
2022/09/28 00:44:24;;;;;;;8.40;7.00;;;;;;;10.17;73.65;99501.25;5052774;28;20132;-57
2022/09/28 00:46:55;;;;;;;10.50;6.88;;;;;;;10.19;73.52;99492.66;5052914;28;20029;-57
2022/09/28 00:49:47;;;;;;;7.22;6.50;;;;;;;10.16;73.19;99493.22;5080328;28;20106;-57
2022/09/28 00:52:27;;;;;;;8.32;6.72;;;;;;;10.22;73.33;99497.66;5089394;28;20036;-57
2022/09/28 00:54:53;;;;;;;9.57;6.95;;;;;;;10.19;73.42;99487.13;5052849;28;20025;-57
2022/09/28 00:57:21;;;;;;;7.30;6.60;;;;;;;10.14;73.39;99487.97;5052082;28;20025;-57
2022/09/28 00:59:48;;;;;;;8.52;6.90;;;;;;;10.12;73.31;99489.38;5059844;28;20059;-57
2022/09/28 01:02:13;;;;;;;7.22;6.53;;;;;;;10.11;73.31;99485.75;5072519;28;20460;-57
2022/09/28 01:04:38;;;;;;;7.57;6.68;;;;;;;10.13;73.51;99485.47;5073997;28;20022;-57
2022/09/28 01:07:07;;;;;;;7.13;6.43;;;;;;;10.08;73.42;99480.78;5091172;28;20501;-57
2022/09/28 01:09:33;;;;;;;7.22;6.40;;;;;;;10.09;73.46;99482.44;5092586;28;20032;-57
2022/09/28 01:11:58;;;;;;;8.68;7.13;;;;;;;10.09;73.77;99488.81;5091712;28;20024;-57
2022/09/28 01:14:24;;;;;;;9.50;7.32;;;;;;;10.13;73.85;99483.53;5092515;28;20111;-57
2022/09/28 01:17:08;;;;;;;8.82;7.47;;;;;;;10.16;73.98;99494.06;5067228;28;20115;-57
2022/09/28 01:19:54;;;;;;;8.18;7.38;;;;;;;10.21;73.83;99496.78;5075468;28;20028;-57
2022/09/28 01:22:37;;;;;;;8.95;7.28;;;;;;;10.18;74.05;99490.97;5084053;28;20031;-57
2022/09/28 01:25:11;;;;;;;13.25;8.07;;;;;;;10.16;73.80;99493.22;5089808;28;20032;-57
2022/09/28 01:27:50;;;;;;;9.45;7.88;;;;;;;10.14;73.68;99487.97;5058839;28;20036;-57
2022/09/28 01:30:18;;;;;;;9.27;8.10;;;;;;;10.13;73.76;99494.59;5083624;28;20051;-57
2022/09/28 01:32:56;;;;;;;9.82;8.52;;;;;;;10.12;74.15;99489.38;5091198;28;20043;-58
2022/09/28 01:35:46;;;;;;;12.55;9.05;;;;;;;10.18;73.95;99499.31;5075095;28;20415;-57
2022/09/28 01:38:19;;;;;;;12.95;8.32;;;;;;;10.16;74.44;99494.06;5082317;28;20077;-57
2022/09/28 01:40:46;;;;;;;11.52;8.70;;;;;;;10.15;74.32;99488.81;5085038;28;20016;-56
2022/09/28 01:43:35;;;;;;;11.18;8.68;;;;;;;10.19;74.09;99499.03;5075162;28;20033;-57
2022/09/28 01:46:17;;;;;;;10.25;9.15;;;;;;;10.20;74.09;99503.47;5089665;28;20503;-56
2022/09/28 01:48:57;;;;;;;11.85;9.35;;;;;;;10.21;74.21;99507.06;5078969;28;20024;-57
2022/09/28 01:51:54;;;;;;;10.30;9.18;;;;;;;10.23;74.30;99508.44;5088110;28;20024;-57
2022/09/28 01:54:29;;;;;;;12.50;9.80;;;;;;;10.15;74.28;99508.22;5065882;28;20040;-57
2022/09/28 01:57:06;;;;;;;12.77;10.15;;;;;;;10.15;74.71;99506.25;5077116;28;20033;-57
2022/09/28 01:59:33;;;;;;;14.52;10.98;;;;;;;10.15;74.52;99506.25;5088528;28;20089;-57
2022/09/28 02:02:08;;;;;;;13.20;10.95;;;;;;;10.14;74.94;99504.63;5084869;28;20035;-57
2022/09/28 02:04:41;;;;;;;15.55;11.25;;;;;;;10.16;74.65;99499.59;5083230;28;20023;-57
2022/09/28 02:07:15;;;;;;;14.55;10.27;;;;;;;10.16;74.95;99496.00;5074616;28;20476;-57
2022/09/28 02:09:49;;;;;;;11.93;10.60;;;;;;;10.17;74.99;99490.16;5060124;28;20028;-57
2022/09/28 02:12:23;;;;;;;12.95;10.85;;;;;;;10.20;74.88;99492.38;5071398;28;20028;-57
2022/09/28 02:14:53;;;;;;;12.15;10.82;;;;;;;10.24;74.82;99484.31;5088007;28;20491;-57
2022/09/28 02:17:19;;;;;;;14.52;10.15;;;;;;;10.24;74.58;99489.88;5056117;28;20021;-57
2022/09/28 02:19:44;;;;;;;11.32;9.13;;;;;;;10.23;74.17;99494.59;5051635;28;20032;-57
2022/09/28 02:22:23;;;;;;;14.15;9.13;;;;;;;10.20;74.11;99488.78;5051065;28;20056;-57
2022/09/28 02:24:52;;;;;;;10.85;8.88;;;;;;;10.18;74.17;99497.38;5051761;28;20044;-57
2022/09/28 02:27:31;;;;;;;12.48;9.18;;;;;;;10.19;74.09;99492.66;5051542;28;20040;-58
2022/09/28 02:29:57;;;;;;;9.15;8.10;;;;;;;10.19;73.45;99500.97;5081479;28;20043;-57
2022/09/28 02:32:24;;;;;;;9.38;7.53;;;;;;;10.12;73.10;99486.59;5067729;28;20040;-57
2022/09/28 02:34:49;;;;;;;9.15;7.68;;;;;;;10.14;73.41;99496.28;5050726;28;20040;-57
2022/09/28 02:37:14;;;;;;;11.07;7.25;;;;;;;10.11;73.08;99496.03;5052758;28;20021;-57
2022/09/28 02:39:39;;;;;;;8.23;6.68;;;;;;;10.11;72.91;99487.72;5055638;28;20028;-57
2022/09/28 02:42:24;;;;;;;8.02;6.68;;;;;;;10.06;72.90;99494.06;5054342;28;20028;-56
2022/09/28 02:45:04;;;;;;;8.10;5.90;;;;;;;10.03;72.83;99495.50;5054745;28;20032;-57
2022/09/28 02:47:48;;;;;;;8.43;6.57;;;;;;;10.09;73.31;99499.06;5058180;28;20036;-57
2022/09/28 02:50:32;;;;;;;8.68;6.05;;;;;;;10.05;73.12;99498.81;5070423;28;20530;-57
2022/09/28 02:53:25;;;;;;;7.82;5.70;;;;;;;10.07;73.15;99496.59;5075089;28;20060;-57
2022/09/28 02:56:04;;;;;;;;;;;;;;;10.24;72.88;99500.94;5075039;28;20036;-57
2022/09/28 02:58:29;;;;;;;7.25;5.78;;;;;;;10.07;72.53;99493.81;5080118;28;20014;-57
2022/09/28 03:01:26;;;;;;;9.38;5.35;;;;;;;10.08;72.96;99501.00;5095127;28;20116;-57
2022/09/28 03:04:05;;;;;;;5.80;5.30;;;;;;;10.07;73.09;99507.69;5094831;28;20043;-58
2022/09/28 03:06:42;;;;;;;7.65;5.70;;;;;;;10.04;73.05;99502.69;5063077;28;20772;-58
2022/09/28 03:09:17;;;;;;;7.95;5.57;;;;;;;10.04;72.79;99510.19;5085084;28;20401;-57
2022/09/28 03:11:51;;;;;;;12.48;5.68;;;;;;;10.01;72.97;99505.19;5078483;28;20434;-58
2022/09/28 03:14:17;;;;;;;7.78;5.00;;;;;;;9.97;72.65;99493.84;5085864;28;20028;-57
2022/09/28 03:16:43;;;;;;;7.32;4.90;;;;;;;9.98;73.06;99502.97;5087058;28;20039;-57
2022/09/28 03:19:10;;;;;;;6.35;5.35;;;;;;;9.97;72.84;99502.16;5085052;28;20024;-59
2022/09/28 03:21:36;;;;;;;5.90;4.45;;;;;;;9.94;72.85;99497.19;5079913;28;20036;-57
2022/09/28 03:24:03;;;;;;;7.07;4.63;;;;;;;9.98;72.87;99500.22;5076409;28;20039;-57
2022/09/28 03:26:28;;;;;;;7.40;4.97;;;;;;;9.97;73.07;99498.56;5089031;28;20028;-57
2022/09/28 03:28:54;;;;;;;5.13;4.10;;;;;;;9.98;72.61;99500.22;5086954;28;20383;-57
2022/09/28 03:31:19;;;;;;;4.57;4.10;;;;;;;9.97;72.72;99493.84;5081337;28;20048;-58
2022/09/28 03:33:44;;;;;;;4.90;3.97;;;;;;;9.95;72.85;99495.25;5089704;28;20509;-58
2022/09/28 03:36:09;;;;;;;6.53;4.13;;;;;;;9.93;73.09;99492.75;5077502;28;20032;-58
2022/09/28 03:38:35;;;;;;;4.10;3.70;;;;;;;9.95;72.85;99498.84;5087672;28;20111;-58
2022/09/28 03:41:00;;;;;;;5.18;3.95;;;;;;;9.96;73.17;99508.81;5083480;28;20032;-57
2022/09/28 03:43:27;;;;;;;5.55;3.90;;;;;;;9.94;73.16;99507.44;5092875;28;20047;-57
2022/09/28 03:45:59;;;;;;;5.03;3.28;;;;;;;9.93;73.20;99503.84;5076931;28;20040;-57
2022/09/28 03:48:27;;;;;;;5.88;3.63;;;;;;;9.93;73.09;99501.06;5062096;28;20038;-57
2022/09/28 03:50:58;;;;;;;5.18;3.40;;;;;;;9.96;73.19;99510.75;5085545;28;20039;-57
2022/09/28 03:53:24;;;;;;;5.22;3.70;;;;;;;9.97;72.89;99499.38;5085842;28;20034;-57
2022/09/28 03:55:51;;;;;;;4.28;3.53;;;;;;;9.95;72.55;99514.66;5077634;28;20028;-57
2022/09/28 03:58:17;;;;;;;3.85;3.38;;;;;;;9.93;73.07;99508.56;5090561;28;20082;-56
2022/09/28 04:00:42;;;;;;;5.45;3.30;;;;;;;9.95;72.80;99515.47;5072866;28;20479;-57
2022/09/28 04:03:08;;;;;;;7.28;3.30;;;;;;;9.93;72.98;99509.38;5083427;28;20021;-56
2022/09/28 04:05:33;;;;;;;4.50;3.55;;;;;;;9.91;72.67;99513.56;5071639;28;20044;-56
2022/09/28 04:07:59;;;;;;;4.30;3.33;;;;;;;9.91;72.73;99508.84;5053036;28;20029;-56
2022/09/28 04:10:25;;;;;;;5.57;3.22;;;;;;;9.91;73.06;99510.78;5053824;28;20028;-57
2022/09/28 04:12:54;;;;;;;4.53;2.65;;;;;;;9.91;72.97;99508.84;5067226;28;20036;-57
2022/09/28 04:15:19;;;;;;;5.43;3.22;;;;;;;9.91;72.83;99511.63;5053543;28;20042;-57
2022/09/28 04:17:44;;;;;;;5.63;3.10;;;;;;;9.92;72.98;99513.28;5053547;28;20029;-57
2022/09/28 04:20:09;;;;;;;3.97;2.58;;;;;;;9.92;73.38;99512.44;5052907;28;20092;-57
2022/09/28 04:22:36;;;;;;;3.67;2.80;;;;;;;9.94;73.35;99510.19;5056149;28;20504;-57
2022/09/28 04:25:02;;;;;;;6.03;2.80;;;;;;;9.91;73.19;99502.47;5073491;28;20059;-57
2022/09/28 04:30:12;;;;;;;4.18;2.40;;;;;;;9.91;73.19;99500.53;5093791;28;20146;-57
2022/09/28 04:32:37;;;;;;;6.63;2.28;;;;;;;9.90;73.41;99507.16;5093263;28;20115;-57
2022/09/28 04:35:03;;;;;;;6.10;1.88;;;;;;;9.91;72.91;99497.75;5092825;28;20135;-57
2022/09/28 04:37:30;;;;;;;4.20;2.00;;;;;;;9.89;73.58;99501.91;5093431;28;20107;-57
2022/09/28 04:39:55;;;;;;;2.42;1.70;;;;;;;9.90;73.35;99493.31;5073097;28;20029;-57
2022/09/28 04:42:20;;;;;;;2.15;1.67;;;;;;;9.87;73.81;99493.88;5067903;28;20028;-57
2022/09/28 04:44:46;;;;;;;3.80;1.80;;;;;;;9.92;73.30;99499.41;5089429;28;20058;-57
2022/09/28 04:47:11;;;;;;;5.47;1.80;;;;;;;9.93;73.12;99506.59;5059418;28;20504;-57
2022/09/28 04:49:37;;;;;;;4.00;1.63;;;;;;;9.89;72.87;99499.13;5052322;28;20037;-57
2022/09/28 04:52:03;;;;;;;2.13;1.67;;;;;;;9.82;73.33;99508.59;5052984;28;20028;-57
2022/09/28 04:54:28;;;;;;;3.90;1.77;;;;;;;9.82;73.01;99508.59;5071075;28;20032;-57
2022/09/28 04:56:54;;;;;;;2.35;1.70;;;;;;;9.86;73.10;99505.25;5092284;28;20035;-57
2022/09/28 04:59:19;;;;;;;3.40;1.60;;;;;;;9.81;72.97;99508.84;5093143;28;20025;-57
2022/09/28 05:01:46;;;;;;;4.05;1.80;;;;;;;9.85;72.95;99521.03;5078328;28;20024;-58
2022/09/28 05:04:12;;;;;;;2.35;1.60;;;;;;;9.80;72.76;99521.06;5071978;28;20024;-56
2022/09/28 05:06:37;;;;;;;1.95;1.38;;;;;;;9.77;72.78;99522.44;5084747;28;20035;-56
2022/09/28 05:09:03;;;;;;;3.45;1.40;;;;;;;9.79;72.81;99516.63;5079934;28;20039;-57
2022/09/28 05:11:28;;;;;;;2.80;1.52;;;;;;;9.72;72.55;99521.63;5073948;28;20021;-57
2022/09/28 05:13:53;;;;;;;3.97;1.60;;;;;;;9.74;72.60;99522.16;5081239;28;20035;-57
2022/09/28 05:16:19;;;;;;;2.55;1.55;;;;;;;9.74;73.00;99516.63;5074767;28;20024;-57
2022/09/28 05:18:45;;;;;;;3.72;1.73;;;;;;;9.74;72.66;99522.16;5086963;28;20027;-56
2022/09/28 05:21:14;;;;;;;4.25;1.30;;;;;;;9.66;73.31;99518.03;5081811;28;20028;-57
2022/09/28 05:23:45;;;;;;;4.50;1.67;;;;;;;9.70;72.67;99521.06;5079017;28;20043;-56
2022/09/28 05:26:10;;;;;;;3.33;1.83;;;;;;;9.66;72.84;99523.56;5088739;28;20023;-57
2022/09/28 05:28:35;;;;;;;4.10;1.88;;;;;;;9.67;72.61;99519.72;5075815;28;20016;-57
2022/09/28 05:31:02;;;;;;;5.80;1.70;;;;;;;9.66;73.17;99523.56;5083903;28;20396;-56
2022/09/28 05:33:29;;;;;;;1.70;1.50;;;;;;;9.71;73.11;99525.53;5082824;28;20383;-57
2022/09/28 05:35:55;;;;;;;1.63;1.38;;;;;;;9.70;72.92;99524.66;5084943;28;20456;-57
2022/09/28 05:38:20;;;;;;;2.33;1.60;;;;;;;9.68;72.74;99526.91;5089572;28;20050;-57
2022/09/28 05:40:45;;;;;;;3.33;1.88;;;;;;;9.67;73.02;99518.84;5076797;28;20020;-57
2022/09/28 05:43:11;;;;;;;2.35;1.90;;;;;;;9.66;72.95;99518.03;5083216;28;20048;-57
2022/09/28 05:45:36;;;;;;;3.90;1.70;;;;;;;9.65;72.71;99516.38;5083086;28;20103;-57
2022/09/28 05:48:01;;;;;;;2.95;2.08;;;;;;;9.63;73.16;99517.75;5076022;28;20029;-57
2022/09/28 05:50:27;;;;;;;4.68;1.95;;;;;;;9.63;73.08;99515.84;5089612;28;20391;-57
2022/09/28 05:53:03;;;;;;;4.82;2.50;;;;;;;9.62;72.93;99516.94;5084781;28;20459;-57
2022/09/28 05:55:29;;;;;;;4.00;2.83;;;;;;;9.63;73.45;99528.84;5073502;28;20052;-56
2022/09/28 05:57:58;;;;;;;3.08;2.70;;;;;;;9.63;73.07;99538.00;5081094;28;20030;-57
2022/09/28 06:00:25;;;;;;;4.05;2.95;;;;;;;9.63;73.17;99531.59;5071988;28;20031;-57
2022/09/28 06:03:04;;;;;;;3.42;2.70;;;;;;;9.70;73.57;99535.75;5053152;28;20025;-57
2022/09/28 06:05:31;;;;;;;4.97;3.40;;;;;;;9.64;73.50;99538.81;5070348;28;20110;-57
2022/09/28 06:07:58;;;;;;;4.82;3.55;;;;;;;9.65;73.25;99534.94;5092113;28;20091;-57
2022/09/28 06:10:25;;;;;;;4.47;3.25;;;;;;;9.61;73.15;99534.66;5073536;28;20025;-56
2022/09/28 06:12:51;;;;;;;6.95;3.55;;;;;;;9.66;73.18;99545.72;5053052;28;20025;-56
2022/09/28 06:15:17;;;;;;;5.97;4.07;;;;;;;9.66;72.78;99539.38;5055835;28;20090;-57
2022/09/28 06:17:42;;;;;;;4.38;3.97;;;;;;;9.65;72.96;99540.47;5056019;28;20050;-56
2022/09/28 06:20:09;;;;;;;7.30;4.13;;;;;;;9.60;72.90;99549.63;5074283;28;20029;-57
2022/09/28 06:22:34;;;;;;;5.38;4.55;;;;;;;9.65;72.86;99549.63;5081840;28;20111;-57
2022/09/28 06:24:59;;;;;;;6.35;4.22;;;;;;;9.65;72.65;99546.03;5084980;28;20128;-57
2022/09/28 06:27:25;;;;;;;5.95;4.40;;;;;;;9.63;72.92;99551.00;5088746;28;20149;-57
2022/09/28 06:29:50;;;;;;;5.72;4.47;;;;;;;9.66;72.86;99556.81;5078500;28;20492;-57
2022/09/28 06:32:16;;;;;;;6.32;4.35;;;;;;;9.63;72.67;99551.84;5091222;28;20024;-57
2022/09/28 06:34:41;;;;;;;8.77;5.30;;;;;;;9.62;73.00;99552.94;5081887;28;20016;-57
2022/09/28 06:37:06;;;;;;;6.28;5.40;;;;;;;9.63;73.14;99553.75;5083890;28;20476;-57
2022/09/28 06:39:32;;;;;;;7.18;5.10;;;;;;;9.62;73.17;99561.25;5069350;28;20025;-57
2022/09/28 06:42:02;;;;;;;9.43;5.60;;;;;;;9.62;73.60;99554.88;5089465;28;20039;-57
2022/09/28 06:44:28;;;;;;;8.70;5.00;;;;;;;9.59;72.96;99559.88;5080909;28;20052;-57
2022/09/28 06:46:54;;;;;;;8.05;6.30;;;;;;;9.59;73.09;99561.84;5085391;28;20032;-57
2022/09/28 06:49:21;;;;;;;6.97;5.85;;;;;;;9.58;73.34;99569.28;5085779;28;20032;-57
2022/09/28 06:51:46;;;;;;;8.93;6.63;;;;;;;9.56;73.58;99568.75;5094918;28;20032;-57
2022/09/28 06:54:11;;;;;;;8.70;6.68;;;;;;;9.58;73.83;99566.50;5078896;28;20024;-57
2022/09/28 06:56:37;;;;;;;7.43;6.30;;;;;;;9.62;73.73;99565.97;5086872;28;20024;-57
2022/09/28 06:59:02;;;;;;;9.32;6.05;;;;;;;9.59;74.44;99568.19;5084164;28;20033;-57
2022/09/28 07:01:27;;;;;;;7.80;6.32;;;;;;;9.68;73.86;99570.41;5076617;28;20027;-57
2022/09/28 07:03:52;;;;;;;7.20;6.32;;;;;;;9.68;74.35;99570.41;5088802;28;20024;-57
2022/09/28 07:06:19;;;;;;;6.82;6.22;;;;;;;9.70;74.48;99577.31;5089386;28;20479;-57
2022/09/28 07:08:44;;;;;;;10.73;6.32;;;;;;;9.70;74.62;99577.31;5072387;28;20021;-58
2022/09/28 07:11:10;;;;;;;9.93;6.18;;;;;;;9.76;74.74;99578.16;5093901;28;20078;-57
2022/09/28 07:13:36;;;;;;;8.15;6.72;;;;;;;9.81;74.77;99586.44;5068564;28;20039;-57
2022/09/28 07:16:02;;;;;;;7.20;6.32;;;;;;;9.78;75.21;99595.31;5089922;28;20060;-57
2022/09/28 07:18:28;;;;;;;8.23;5.90;;;;;;;9.83;75.10;99584.25;5072204;28;20025;-57
2022/09/28 07:20:57;;;;;;;9.73;7.07;;;;;;;9.82;75.25;99588.97;5057834;28;20146;-57
2022/09/28 07:23:26;;;;;;;6.90;6.20;;;;;;;9.84;74.96;99588.66;5054109;28;20147;-57
2022/09/28 07:25:52;;;;;;;7.20;5.75;;;;;;;9.95;74.72;99586.72;5054465;28;20099;-57
2022/09/28 07:28:17;;;;;;;13.85;6.15;;;;;;;10.02;74.78;99590.00;5054798;28;20036;-57
2022/09/28 07:30:43;;;;;;;7.75;5.90;;;;;;;10.06;74.65;99585.56;5053274;28;20040;-57
2022/09/28 07:33:11;;;;;;;9.15;5.72;;;;;;;10.11;75.01;99587.53;5054029;28;20028;-57
2022/09/28 07:35:37;;;;;;;8.82;5.72;;;;;;;10.20;74.81;99596.91;5057007;28;20036;-57
2022/09/28 07:38:06;;;;;;;6.85;5.38;;;;;;;10.28;74.88;99599.13;5053669;28;20033;-57
2022/09/28 07:43:19;;;;;;;7.97;5.68;;;;;;;10.50;74.94;99594.06;5054597;28;20122;-57
2022/09/28 07:45:46;;;;;;;9.30;6.10;;;;;;;10.60;74.73;99593.19;5053403;28;20052;-57
2022/09/28 07:48:14;;;;;;;10.70;5.78;;;;;;;10.73;74.25;99600.91;5060803;28;20050;-57
2022/09/28 07:50:40;;;;;;;6.05;5.45;;;;;;;10.84;74.25;99603.63;5094640;28;20028;-57
2022/09/28 07:53:05;;;;;;;7.13;5.63;;;;;;;10.85;73.84;99608.91;5078433;28;20028;-57
2022/09/28 07:55:31;;;;;;;6.72;5.38;;;;;;;11.01;73.59;99604.94;5074269;28;20469;-58
2022/09/28 07:58:00;;;;;;;7.28;4.75;;;;;;;11.10;73.09;99602.38;5068462;28;20419;-58
2022/09/28 08:00:27;;;;;;;8.23;5.30;;;;;;;11.24;72.98;99610.91;5054078;28;20025;-58
2022/09/28 08:02:52;;;;;;;11.25;4.60;;;;;;;11.36;72.27;99610.53;5058586;28;20025;-58
2022/09/28 08:05:17;;;;;;;6.47;5.07;;;;;;;11.47;72.29;99601.81;5093512;28;20035;-58
2022/09/28 08:07:43;;;;;;;7.50;4.82;;;;;;;11.58;71.62;99601.75;5074879;28;20037;-57
2022/09/28 08:10:09;;;;;;;10.48;5.50;;;;;;;11.66;71.44;99610.28;5053847;28;20027;-57
2022/09/28 08:12:34;;;;;;;7.10;5.43;;;;;;;11.75;71.18;99603.00;5053161;28;20389;-57
2022/09/28 08:15:00;;;;;;;6.72;5.30;;;;;;;11.74;71.19;99608.84;5059273;28;20021;-57
2022/09/28 08:17:25;;;;;;;6.32;4.88;;;;;;;11.80;71.11;99618.81;5074193;28;20040;-57
2022/09/28 08:22:36;;;;;;;9.82;5.30;;;;;;;12.03;71.17;99629.19;5054553;28;20142;-58
2022/09/28 08:25:01;;;;;;;8.05;5.22;;;;;;;12.13;70.55;99624.66;5053260;28;20393;-57
2022/09/28 08:27:26;;;;;;;8.82;5.78;;;;;;;12.19;70.41;99627.09;5052862;28;20040;-58
2022/09/28 08:29:51;;;;;;;9.45;5.15;;;;;;;12.33;70.27;99623.59;5053344;28;20044;-58
2022/09/28 08:32:18;;;;;;;6.35;5.40;;;;;;;12.43;70.70;99629.91;5054414;28;20112;-57
2022/09/28 08:34:44;;;;;;;6.32;5.18;;;;;;;12.58;70.66;99639.22;5090930;28;20050;-58
2022/09/28 08:37:09;;;;;;;6.43;5.07;;;;;;;12.64;69.74;99635.22;5093782;28;20032;-57
2022/09/28 08:39:35;;;;;;;9.13;5.30;;;;;;;12.75;70.19;99636.75;5062878;28;20403;-58
2022/09/28 08:42:26;;;;;;;10.35;5.00;;;;;;;12.84;69.78;99640.53;5060003;28;20016;-58
2022/09/28 08:44:56;;;;;;;8.98;4.25;;;;;;;12.89;68.99;99651.63;5081992;28;20039;-58
2022/09/28 08:50:47;;;;;;;5.90;4.22;;;;;;;13.12;68.78;99657.44;5081999;28;20089;-58
2022/09/28 08:53:31;;;;;;;11.80;4.22;;;;;;;13.10;68.80;99651.34;5078704;28;20032;-58
2022/09/28 08:55:59;;;;;;;5.03;4.38;;;;;;;13.09;68.00;99649.72;5088633;28;20039;-58
2022/09/28 08:58:31;;;;;;;5.38;4.63;;;;;;;13.20;68.47;99649.28;5079934;28;20051;-58
2022/09/28 09:00:57;;;;;;;7.57;4.30;;;;;;;13.32;68.26;99651.63;5081322;28;20031;-58
2022/09/28 09:03:31;;;;;;;6.32;4.57;;;;;;;13.49;69.00;99646.34;5083482;28;20024;-58
2022/09/28 09:06:06;;;;;;;7.78;4.57;;;;;;;13.60;68.59;99652.63;5085862;28;20038;-58
2022/09/28 09:08:54;;;;;;;7.13;4.47;;;;;;;13.73;68.78;99656.59;5083635;28;20518;-58
2022/09/28 09:11:44;;;;;;;6.32;4.70;;;;;;;13.86;68.03;99669.75;5087172;28;20043;-58
2022/09/28 09:14:27;;;;;;;5.70;3.85;;;;;;;13.85;66.45;99665.31;5061558;28;20040;-58
2022/09/28 09:17:05;;;;;;;8.48;4.10;;;;;;;13.96;67.09;99665.97;5091678;28;20106;-58
2022/09/28 09:19:47;;;;;;;6.57;4.45;;;;;;;14.11;67.54;99671.31;5075857;28;20152;-58
2022/09/28 09:22:19;;;;;;;4.93;4.25;;;;;;;14.10;66.60;99658.47;5063293;28;20036;-58
2022/09/28 09:24:54;;;;;;;5.13;3.38;;;;;;;14.03;66.30;99671.16;5081751;28;20036;-58
2022/09/28 09:27:19;;;;;;;6.22;4.20;;;;;;;14.16;66.72;99678.75;5086935;28;20109;-58
2022/09/28 09:30:05;;;;;;;5.70;4.50;;;;;;;14.20;67.10;99672.25;5063053;28;20052;-58
2022/09/28 09:32:33;;;;;;;6.22;3.85;;;;;;;14.09;66.47;99676.34;5087990;28;20057;-58
2022/09/28 09:35:29;;;;;;;6.80;3.47;;;;;;;13.96;66.83;99679.94;5075636;28;20032;-58
2022/09/28 09:38:28;;;;;;;6.07;2.80;;;;;;;13.97;67.24;99678.78;5069967;28;20025;-58
2022/09/28 09:41:06;;;;;;;8.48;3.40;;;;;;;13.99;67.12;99688.53;5052253;28;20086;-58
2022/09/28 09:44:01;;;;;;;5.68;3.15;;;;;;;13.97;67.02;99690.78;5051404;28;20381;-58
2022/09/28 09:46:38;;;;;;;8.70;3.47;;;;;;;14.06;66.24;99682.53;5051580;28;20045;-58
2022/09/28 09:49:07;;;;;;;3.90;3.08;;;;;;;14.12;66.00;99691.66;5051908;28;20033;-58
2022/09/28 09:51:57;;;;;;;8.48;3.53;;;;;;;14.25;66.36;99685.28;5051285;28;20044;-58
2022/09/28 09:54:33;;;;;;;3.83;2.65;;;;;;;14.42;65.29;99681.91;5051475;28;20036;-58
2022/09/28 09:57:04;;;;;;;5.55;2.90;;;;;;;14.55;65.26;99683.09;5051902;28;20365;-58
2022/09/28 09:59:37;;;;;;;3.97;2.90;;;;;;;14.64;64.24;99678.47;5051378;28;20017;-58
2022/09/28 10:02:21;;;;;;;4.43;3.45;;;;;;;14.76;65.14;99687.16;5051917;28;20033;-58
2022/09/28 10:04:49;;;;;;;10.25;2.95;;;;;;;14.80;63.51;99678.97;5051006;28;20519;-56
2022/09/28 10:07:22;;;;;;;6.13;2.70;;;;;;;14.86;64.01;99674.97;5051895;28;20033;-56
2022/09/28 10:09:50;;;;;;;6.68;3.05;;;;;;;14.91;63.98;99678.47;5051802;28;20025;-56
2022/09/28 10:12:19;;;;;;;5.53;2.83;;;;;;;15.00;63.63;99677.75;5051056;28;20045;-56
2022/09/28 10:14:45;;;;;;;4.43;3.13;;;;;;;15.09;63.39;99678.66;5077049;28;20024;-56
2022/09/28 10:17:14;;;;;;;6.13;3.20;;;;;;;15.07;63.05;99676.19;5059867;28;20747;-56
2022/09/28 10:19:42;;;;;;;5.35;3.25;;;;;;;14.95;62.36;99681.47;5076113;28;20031;-56
2022/09/28 10:22:14;;;;;;;6.82;2.90;;;;;;;14.84;62.67;99675.25;5082233;28;20085;-57
2022/09/28 10:24:46;;;;;;;4.72;2.92;;;;;;;14.80;62.61;99681.78;5085238;28;20463;-57
2022/09/28 10:27:18;;;;;;;4.07;2.80;;;;;;;14.86;63.22;99672.16;5073972;28;20647;-57
2022/09/28 10:30:00;;;;;;;6.22;3.53;;;;;;;14.87;63.70;99671.03;5086823;28;20044;-57
2022/09/28 10:32:36;;;;;;;5.97;2.92;;;;;;;14.93;63.33;99673.41;5090129;28;20061;-57
2022/09/28 10:35:16;;;;;;;7.70;3.17;;;;;;;14.95;63.36;99679.50;5073904;28;20365;-57
2022/09/28 10:38:05;;;;;;;6.50;3.28;;;;;;;14.92;64.09;99680.13;5085598;28;20024;-57
2022/09/28 10:40:58;;;;;;;6.88;2.75;;;;;;;14.82;64.20;99671.13;5083179;28;20020;-57
2022/09/28 10:43:26;;;;;;;8.10;2.80;;;;;;;14.77;63.39;99669.25;5084364;28;20039;-57
2022/09/28 10:46:04;;;;;;;5.57;3.00;;;;;;;14.77;63.62;99680.41;5088967;28;20032;-57
2022/09/28 10:48:53;;;;;;;5.05;3.40;;;;;;;14.65;63.61;99683.72;5084435;28;20032;-57
2022/09/28 10:51:19;;;;;;;5.22;3.20;;;;;;;14.53;63.58;99677.81;5074152;28;20043;-57
2022/09/28 10:54:01;;;;;;;6.13;2.95;;;;;;;14.45;64.18;99673.75;5085142;28;20017;-57
2022/09/28 10:56:34;;;;;;;5.82;2.85;;;;;;;14.40;63.74;99676.63;5083015;28;20107;-57
2022/09/28 10:58:59;;;;;;;3.97;2.83;;;;;;;14.55;63.93;99671.94;5077064;28;20035;-57
2022/09/28 11:01:31;;;;;;;4.43;2.58;;;;;;;14.66;62.55;99681.78;5090200;28;20028;-57
2022/09/28 11:04:01;;;;;;;5.03;2.60;;;;;;;14.77;62.35;99679.59;5078461;28;20032;-57
2022/09/28 11:06:30;;;;;;;4.00;2.38;;;;;;;14.81;61.62;99669.47;5088527;28;20024;-57
2022/09/28 11:08:59;;;;;;;4.13;2.13;;;;;;;14.98;61.90;99661.28;5094083;28;20020;-57
2022/09/28 11:11:25;;;;;;;4.75;2.38;;;;;;;15.13;62.10;99679.69;5067707;28;20023;-57
2022/09/28 11:13:53;;;;;;;6.38;2.65;;;;;;;15.28;62.79;99672.94;5087897;28;20021;-57
2022/09/28 11:16:27;;;;;;;6.93;2.53;;;;;;;15.37;61.75;99668.28;5071839;28;20116;-57
2022/09/28 11:18:53;;;;;;;4.55;1.80;;;;;;;15.35;60.92;99665.78;5054766;28;20456;-57
2022/09/28 11:21:23;;;;;;;5.75;1.90;;;;;;;15.28;61.12;99668.19;5071729;28;20111;-57
2022/09/28 11:24:15;;;;;;;3.65;1.35;;;;;;;15.15;61.27;99674.63;5094457;28;20028;-57
2022/09/28 11:26:43;;;;;;;2.33;1.30;;;;;;;15.05;60.79;99670.09;5086076;28;20123;-57
2022/09/28 11:29:42;;;;;;;4.25;1.17;;;;;;;15.00;61.99;99670.19;5053930;28;20844;-57
2022/09/28 11:32:09;;;;;;;3.10;1.35;;;;;;;14.85;60.56;99668.53;5080910;28;20044;-57
2022/09/28 11:34:37;;;;;;;2.60;1.25;;;;;;;14.77;61.47;99676.81;5090599;28;20056;-57
2022/09/28 11:37:26;;;;;;;4.07;1.35;;;;;;;14.74;61.50;99672.69;5081573;28;20028;-57
2022/09/28 11:40:13;;;;;;;4.05;1.65;;;;;;;14.61;61.04;99667.91;5079544;28;20043;-57
2022/09/28 11:42:38;;;;;;;4.85;1.80;;;;;;;14.60;62.29;99677.41;5063433;28;20047;-57
2022/09/28 11:45:29;;;;;;;5.93;2.25;;;;;;;14.59;63.10;99675.78;5085532;28;20016;-57
2022/09/28 11:48:00;;;;;;;4.68;1.77;;;;;;;14.68;64.55;99671.13;5085816;28;20025;-57
2022/09/28 11:50:28;;;;;;;5.60;1.98;;;;;;;14.81;63.81;99677.84;5088914;28;20024;-57
2022/09/28 11:53:02;;;;;;;2.40;1.27;;;;;;;14.94;62.92;99661.09;5087301;28;20529;-58
2022/09/28 11:55:42;;;;;;;5.85;1.88;;;;;;;15.05;62.21;99658.91;5085313;28;20085;-57
2022/09/28 11:58:16;;;;;;;6.28;1.98;;;;;;;15.02;60.98;99667.91;5076657;28;20020;-57
2022/09/28 12:00:49;;;;;;;4.05;2.15;;;;;;;14.95;60.65;99671.13;5088856;28;20024;-56
2022/09/28 12:03:23;;;;;;;6.72;2.65;;;;;;;15.03;61.67;99671.53;5075151;28;20032;-57
2022/09/28 12:06:00;;;;;;;6.35;2.05;;;;;;;15.06;62.34;99668.13;5088349;28;20489;-57